• Join FlightAware (Why Join?)
  • Login
  • US Flag 
06:45AM EDT


 

Airport Tracker/Info


-or-


 

Live Flight TrackerFlight Track Log ✈ N363NH ✈ 21-Sep-2013 ✈ KLGB - KBFI

Flight Track Log - Related Links

Times and Time Zones

All times are in EDT time to prevent confusion due to time zone crossing. See the N363NH flight status page for this flight to view local times or setup timezone preferences in your user account.

Time Position Orientation Groundspeed Altitude Reporting Facility
EDT Latitude Longitude Course Direction KTS MPH feet Rate Location/Type
02:09AM 33.8333 -118.1667 301° West 189 217 1,100  Level Southern California TRACON
02:10AM 33.8667 -118.2333 301° West 244 281 4,200 3,240 Climbing Southern California TRACON
02:11AM 33.8667 -118.3167 270° West 249 287 7,600 1,920 Climbing Southern California TRACON
02:13AM 33.9258 -118.4186 305° West 265 305 9,000 960 Climbing Los Angeles Center
02:14AM 34.0006 -118.4656 332° Northwest 280 322 10,100 1,440 Climbing Los Angeles Center
02:15AM 34.0800 -118.5036 338° Northwest 302 348 12,000 1,860 Climbing Los Angeles Center
02:16AM 34.1694 -118.5478 338° Northwest 321 369 13,900 1,680 Climbing Los Angeles Center
02:17AM 34.2567 -118.5906 338° Northwest 336 387 15,500 1,620 Climbing Los Angeles Center
02:18AM 34.3436 -118.6336 338° Northwest 338 389 17,200 1,500 Climbing Los Angeles Center
02:19AM 34.4333 -118.6758 339° North 345 397 18,600 1,380 Climbing Los Angeles Center
02:20AM 34.5247 -118.7206 338° Northwest 353 406 20,100 1,380 Climbing Los Angeles Center
02:21AM 34.6172 -118.7664 338° Northwest 358 412 21,400 1,320 Climbing Los Angeles Center
02:22AM 34.7106 -118.8153 337° Northwest 365 420 22,800 1,140 Climbing Los Angeles Center
02:23AM 34.8067 -118.8633 338° Northwest 369 425 23,700 960 Climbing Los Angeles Center
02:24AM 34.9114 -118.8997 344° North 394 453 24,800 1,080 Climbing Los Angeles Center
02:25AM 35.0175 -118.9361 344° North 397 457 25,900 1,020 Climbing Los Angeles Center
02:26AM 35.1267 -118.9742 344° North 407 468 26,900 1,020 Climbing Los Angeles Center
02:27AM 35.2389 -119.0125 344° North 415 478 28,000 1,020 Climbing Los Angeles Center
02:28AM 35.3514 -119.0506 345° North 420 483 29,000 1,080 Climbing Los Angeles Center
02:29AM 35.4625 -119.0883 345° North 419 482 30,200 1,140 Climbing Los Angeles Center
02:30AM 35.5708 -119.1236 345° North 413 475 31,400 1,020 Climbing Los Angeles Center
02:31AM 35.6806 -119.1542 347° North 410 472 32,300 960 Climbing Los Angeles Center
02:32AM 35.7892 -119.1861 347° North 407 468 33,400 1,020 Climbing Los Angeles Center
02:33AM 35.8967 -119.2192 346° North 404 465 34,400 900 Climbing Los Angeles Center
02:34AM 36.0028 -119.2508 346° North 400 460 35,300 1,020 Climbing Los Angeles Center
02:35AM 36.1244 -119.2878 346° North 385 443 36,500 1,020 Climbing Los Angeles Center
02:36AM 36.2225 -119.3175 346° North 371 427 37,400 720 Climbing Los Angeles Center
02:37AM 36.3206 -119.3467 347° North 365 420 38,000 300 Climbing Los Angeles Center
02:38AM 36.4214 -119.3758 347° North 371 427 38,000  Level Los Angeles Center
02:39AM 36.5258 -119.4075 346° North 383 441 38,000  Level Los Angeles Center
02:40AM 36.6336 -119.4419 346° North 397 457 38,000  Level Los Angeles Center
02:41AM 36.7872 -119.4850 347° North 410 472 38,000  Level Oakland Center
02:42AM 36.8986 -119.5192 346° North 412 474 38,000  Level Oakland Center
02:43AM 37.0103 -119.5531 346° North 412 474 38,000  Level Oakland Center
02:44AM 37.1222 -119.5878 346° North 415 478 38,000  Level Oakland Center
02:45AM 37.2353 -119.6211 347° North 417 480 38,000  Level Oakland Center
02:46AM 37.3467 -119.6553 346° North 415 478 38,000  Level Oakland Center
02:47AM 37.4467 -119.6864 346° North 415 478 38,000  Level Oakland Center
02:48AM 37.5583 -119.7203 346° North 414 476 38,000  Level Oakland Center
02:49AM 37.6694 -119.7556 346° North 413 475 38,000  Level Oakland Center
02:50AM 37.8033 -119.7969 346° North 413 475 38,000  Level Oakland Center
02:51AM 37.9150 -119.8311 346° North 414 476 38,000  Level Oakland Center
02:52AM 38.0286 -119.8653 347° North 419 482 38,000  Level Oakland Center
02:53AM 38.1411 -119.9011 346° North 418 481 38,000  Level Oakland Center
02:54AM 38.2525 -119.9367 346° North 416 479 38,000  Level Oakland Center
02:55AM 38.3650 -119.9714 346° North 418 481 38,000  Level Oakland Center
02:56AM 38.4753 -120.0056 346° North 411 473 38,000  Level Oakland Center
02:57AM 38.5869 -120.0417 346° North 413 475 38,000  Level Oakland Center
02:58AM 38.6972 -120.0772 346° North 412 474 38,000  Level Oakland Center
02:59AM 38.8094 -120.1122 346° North 415 478 38,000  Level Oakland Center
03:00AM 38.9186 -120.1461 346° North 409 471 38,000  Level Oakland Center
03:01AM 39.0292 -120.1828 346° North 410 472 38,000  Level Oakland Center
03:02AM 39.1383 -120.2169 346° North 407 468 38,000  Level Oakland Center
03:03AM 39.2492 -120.2533 346° North 410 472 38,000  Level Oakland Center
03:04AM 39.3603 -120.2889 346° North 411 473 38,000  Level Oakland Center
03:05AM 39.4708 -120.3244 346° North 410 472 38,000  Level Oakland Center
03:06AM 39.5814 -120.3608 346° North 411 473 38,000  Level Oakland Center
03:07AM 39.6914 -120.3975 346° North 409 471 38,000  Level Oakland Center
03:08AM 39.8008 -120.4333 346° North 407 468 38,000  Level Oakland Center
03:09AM 39.9092 -120.4683 346° North 403 464 38,000  Level Oakland Center
03:10AM 40.0267 -120.5078 346° North 403 464 38,000  Level Oakland Center
03:11AM 40.1356 -120.5436 346° North 405 466 38,000  Level Oakland Center
03:12AM 40.2425 -120.5797 346° North 400 460 38,000  Level Oakland Center
03:13AM 40.3503 -120.6144 346° North 399 459 38,000  Level Oakland Center
03:14AM 40.4558 -120.6506 345° North 396 456 38,000  Level Oakland Center
03:15AM 40.5647 -120.6881 345° North 399 459 38,000  Level Oakland Center
03:16AM 40.6517 -120.7178 345° North 395 455 38,000  Level Seattle Center
03:17AM 40.7589 -120.7533 346° North 396 456 38,000  Level Seattle Center
03:18AM 40.8656 -120.7875 346° North 396 456 38,000  Level Seattle Center
03:19AM 40.9700 -120.8275 344° North 391 450 38,000  Level Seattle Center
03:20AM 41.0767 -120.8631 346° North 395 455 38,000  Level Seattle Center
03:21AM 41.1842 -120.8983 346° North 398 458 38,000  Level Seattle Center
03:22AM 41.2908 -120.9350 346° North 396 456 38,000  Level Seattle Center
03:23AM 41.3956 -120.9714 345° North 391 450 38,000  Level Seattle Center
03:24AM 41.5003 -121.0083 345° North 391 450 38,000  Level Seattle Center
03:25AM 41.6047 -121.0450 345° North 389 448 38,000  Level Seattle Center
03:26AM 41.7083 -121.0814 345° North 388 447 38,000  Level Seattle Center
03:27AM 41.8131 -121.1178 345° North 393 452 38,000  Level Seattle Center
03:28AM 41.9181 -121.1542 346° North 391 450 38,000  Level Seattle Center
03:29AM 42.0219 -121.1911 345° North 392 451 38,000  Level Seattle Center
03:30AM 42.1261 -121.2272 346° North 394 453 38,000  Level Seattle Center
03:31AM 42.2306 -121.2647 345° North 394 453 38,000  Level Seattle Center
03:32AM 42.3347 -121.3025 345° North 392 451 38,000  Level Seattle Center
03:33AM 42.4386 -121.3386 346° North 390 449 38,000  Level Seattle Center
03:34AM 42.5433 -121.3758 345° North 390 449 38,000  Level Seattle Center
03:35AM 42.6467 -121.4122 345° North 387 445 38,000  Level Seattle Center
03:36AM 42.7497 -121.4506 345° North 385 443 38,000  Level Seattle Center
03:37AM 42.8539 -121.4869 346° North 386 444 38,000  Level Seattle Center
03:38AM 42.9567 -121.5233 345° North 385 443 38,000  Level Seattle Center
03:39AM 43.0617 -121.5642 344° North 390 449 38,000  Level Seattle Center
03:40AM 43.1856 -121.6111 345° North 388 447 38,000  Level Seattle Center
03:41AM 43.2875 -121.6478 345° North 382 440 38,000  Level Seattle Center
03:42AM 43.3903 -121.6861 345° North 382 440 38,000  Level Seattle Center
03:43AM 43.4925 -121.7233 345° North 380 437 38,000  Level Seattle Center
03:44AM 43.5947 -121.7606 345° North 381 438 38,000  Level Seattle Center
03:45AM 43.6978 -121.8008 344° North 384 442 38,000  Level Seattle Center
03:46AM 43.8006 -121.8383 345° North 382 440 38,000  Level Seattle Center
03:47AM 43.8967 -121.8728 346° North 385 443 38,100 540 Climbing Seattle Center
03:48AM 43.9919 -121.9058 346° North 378 435 39,100 720 Climbing Seattle Center
03:49AM 44.0892 -121.9436 344° North 367 422 39,600 420 Climbing Seattle Center
03:50AM 44.1903 -121.9808 345° North 374 430 40,000 180 Climbing Seattle Center
03:51AM 44.2931 -122.0211 344° North 383 441 40,000  Level Seattle Center
03:52AM 44.3997 -122.0614 345° North 395 455 40,000  Level Seattle Center
03:53AM 44.5072 -122.1033 344° North 401 461 40,000  Level Seattle Center
03:54AM 44.6150 -122.1447 345° North 403 464 40,000  Level Seattle Center
03:55AM 44.7247 -122.1867 345° North 407 468 40,000  Level Seattle Center
03:56AM 44.8317 -122.2292 344° North 404 465 40,000  Level Seattle Center
03:57AM 44.9547 -122.2775 344° North 405 466 40,000  Level Seattle Center
03:58AM 45.0611 -122.3172 345° North 403 464 40,000  Level Seattle Center
03:59AM 45.1675 -122.3600 344° North 401 461 40,000  Level Seattle Center
04:00AM 45.2722 -122.4017 344° North 395 455 40,000  Level Seattle Center
04:01AM 45.3775 -122.4431 345° North 395 455 40,000  Level Seattle Center
04:02AM 45.4814 -122.4833 345° North 390 449 40,000  Level Seattle Center
04:03AM 45.5875 -122.5264 344° North 394 453 40,000 -300 Level Seattle Center
04:04AM 45.6933 -122.5697 344° North 397 457 39,500 -780 Descending Seattle Center
04:05AM 45.8014 -122.6067 347° North 401 461 38,500 -1,020 Descending Seattle Center
04:06AM 45.9086 -122.6322 351° North 397 457 37,500 -1,020 Descending Seattle Center
04:07AM 46.0108 -122.6528 352° North 380 437 36,500 -1,200 Descending Seattle Center
04:08AM 46.1142 -122.6817 349° North 379 436 35,100 -1,620 Descending Seattle Center
04:09AM 46.2164 -122.7058 351° North 375 432 33,300 -1,800 Descending Seattle Center
04:10AM 46.3131 -122.7297 350° North 359 413 31,600 -1,860 Descending Seattle Center
04:11AM 46.4197 -122.7572 350° North 386 444 29,600 -2,220 Descending Seattle Center
04:12AM 46.5317 -122.7917 348° North 409 471 27,200 -2,460 Descending Seattle Center
04:13AM 46.6425 -122.8178 351° North 404 465 24,700 -2,580 Descending Seattle Center
04:13AM 46.6547 -122.8242 340° North 409 471 24,500 -3,780 Descending Seattle Center
04:13AM 46.6642 -122.8256 354° North 409 471 24,200 -2,280 Descending Seattle Center
04:14AM 46.7550 -122.8447 352° North 410 472 22,300 -2,400 Descending Seattle Center
04:14AM 46.7753 -122.8533 344° North 411 473 21,800 -2,400 Descending Seattle Center
04:16AM 46.8866 -122.8733 347° North  Level FlightAware Approximate
04:16AM 46.9819 -122.8822 347° North 348 400 17,200  Level Seattle Center
04:16AM 46.9831 -122.8800 54° Northeast 365 420 17,200 -1,920 Level Seattle Center
04:17AM 47.0717 -122.8147 27° Northeast 359 413 15,300 -1,920 Descending Seattle Center
04:17AM 47.0708 -122.8119 114° Southeast 358 412 15,300 -1,500 Level Seattle Center
04:18AM 47.1575 -122.7683 19° North 331 381 13,800 -1,500 Descending Seattle Center
04:18AM 47.1589 -122.7681 North 336 387 13,800 -1,500 Level Seattle Center
04:19AM 47.2458 -122.7206 20° North 334 384 12,300 -1,620 Descending Seattle Center
04:20AM 47.3311 -122.6775 19° North 325 374 10,600 -1,860 Descending Seattle Center
04:21AM 47.4106 -122.6394 18° North 307 353 8,600 -2,100 Descending Seattle Center
04:22AM 47.4100 -122.6417 250° West 298 343 8,500 -2,040 Descending Seattle Center
04:22AM 47.4889 -122.5992 20° North 299 344 6,600 -1,920 Descending Seattle Center
04:23AM 47.4889 -122.6019 270° West 296 341 6,600 -2,100 Level Seattle Center
04:23AM 47.5658 -122.5617 19° North 292 336 4,500 -2,100 Descending Seattle Center
04:24AM 47.5656 -122.5633 256° West 290 334 4,500 -1,920 Level Seattle Center
04:24AM 47.6222 -122.4931 40° Northeast 275 316 2,600 -1,920 Descending Seattle Center
04:25AM 47.6214 -122.4933 193° South 274 315 2,600 -900 Level Seattle Center
04:26AM 47.6172 -122.3925 93° East 246 283 1,700 -900 Descending Seattle Center
04:26AM 47.6164 -122.3942 233° Southwest 226 260 1,700 -720 Level Seattle Center
04:27AM 47.5850 -122.3489 136° Southeast 166 191 1,000 -720 Descending Seattle Center
04:27AM 47.5825 -122.3472 156° South 137 158 1,000 -600 Level Seattle Center
04:28AM 47.5544 -122.3239 151° Southeast 132 152 400 -600 Descending Seattle Center
04:28AM 47.5542 -122.3236 146° Southeast 118 136 400  Level Seattle Center
04:30AM 47.5300 -122.3020 77° East  Level Estimated
04:37AM 47.5300 -122.3020 77° East  Level Estimated
04:38AM 47.5300 -122.3020 77° East  Level Estimated